Weather History for Ankeny, IA

Change the Weather History Date:

Saturday, October 5, 2013

  Actual Average (KDSM) Record (KDSM)
Temperature  
Mean Temperature 60 °F 57 °F  
Max Temperature 73 °F 68 °F 95 °F (1963)
Min Temperature 48 °F 47 °F 30 °F (1952)
Degree Days  
Heating Degree Days 4 9  
Month to date heating degree days 40  
Since 1 July heating degree days 140  
Cooling Degree Days 0 1  
Month to date cooling degree days 5  
Year to date cooling degree days 1057  
Growing Degree Days 10 (Base 50)    
Moisture  
Dew Point 41 °F    
Average Humidity 59    
Maximum Humidity 78    
Minimum Humidity 44    
Precipitation  
Precipitation 0.00 in 0.09 in 0.78 in (1954)
Month to date precipitation 0.45  
Year to date precipitation 30.22  
Snow  
Snow 0.00 in 0.00 in T in (1991)
Month to date snowfall 0.0  
Since 1 July snowfall 0.0  
Since 1 September snowfall 0.0  
Snow Depth -    
Sea Level Pressure  
Sea Level Pressure 29.85 in    
Wind  
Wind Speed 10 mph (WSW)    
Max Wind Speed 16 mph    
Max Gust Speed 26 mph    
Visibility 10 miles    
Events      
T = Trace of Precipitation, MM = Missing Value Source: NWS Daily Summary

Daily Weather History Graph

Daily Weather History Graph

Search for Another Location

Airport:

Trip Planner

Search our weather history database for the weather conditions in past years. The results will help you decide how hot, cold, wet, or windy it might be!

Date:

Astronomy

Oct. 05, 2013 Rise Set
Actual Time 7:15 AM CDT 6:48 PM CDT
Civil Twilight 6:47 AM CDT 7:16 PM CDT
Nautical Twilight 6:15 AM CDT 7:48 PM CDT
Astronomical Twilight 5:43 AM CDT 8:20 PM CDT
Moon 7:56 AM CDT (10/5) 7:06 PM CDT (10/5)
Length of Visible Light 12h 28m
Length of Day
11h 33m
New Moon, 1% of the Moon is Illuminated
Oct 5
New Moon
Oct 11
First Quarter
Oct 18
Full
Oct 26
Last Quarter
Nov 3
New

Hourly Weather History & Observations

Time (CDT) Temp. Dew Point Humidity Pressure Visibility Wind Dir Wind Speed Gust Speed Precip Events Conditions
12:15 AM 73.4 °F 60.8 °F 65% 29.81 in 10.0 mi WSW 8.1 mph 15.0 mph N/A   Mostly Cloudy
12:35 AM 71.6 °F 60.8 °F 69% 29.80 in 10.0 mi WSW 8.1 mph - N/A   Scattered Clouds
12:55 AM 69.8 °F 60.8 °F 73% 29.81 in 10.0 mi WSW 6.9 mph - N/A   Clear
1:15 AM 69.8 °F 60.8 °F 73% 29.82 in 10.0 mi WSW 8.1 mph - N/A   Clear
1:35 AM 68.0 °F 60.8 °F 78% 29.83 in 10.0 mi WSW 8.1 mph 15.0 mph N/A   Scattered Clouds
1:55 AM 68.0 °F 59.0 °F 73% 29.84 in 10.0 mi WSW 15.0 mph 21.9 mph N/A   Scattered Clouds
2:15 AM 66.2 °F 55.4 °F 68% 29.84 in 10.0 mi West 15.0 mph 25.3 mph N/A   Scattered Clouds
2:35 AM 64.4 °F 53.6 °F 68% 29.85 in 10.0 mi West 9.2 mph - N/A   Partly Cloudy
2:55 AM 62.6 °F 51.8 °F 68% 29.84 in 10.0 mi West 10.4 mph 16.1 mph N/A   Clear
3:15 AM 62.6 °F 51.8 °F 68% 29.84 in 10.0 mi WNW 6.9 mph - N/A   Mostly Cloudy
3:35 AM 60.8 °F 51.8 °F 72% 29.83 in 10.0 mi West 12.7 mph - N/A   Scattered Clouds
3:55 AM 59.0 °F 50.0 °F 72% 29.82 in 10.0 mi West 11.5 mph - N/A   Clear
4:15 AM 59.0 °F 50.0 °F 72% 29.85 in 10.0 mi WSW 11.5 mph - N/A   Clear
4:35 AM 57.2 °F 50.0 °F 77% 29.85 in 10.0 mi WNW 10.4 mph - N/A   Partly Cloudy
4:55 AM 55.4 °F 48.2 °F 77% 29.86 in 10.0 mi West 12.7 mph - N/A   Clear
5:15 AM 55.4 °F 46.4 °F 72% 29.86 in 10.0 mi West 10.4 mph - N/A   Clear
5:35 AM 55.4 °F 46.4 °F 72% 29.87 in 10.0 mi WSW 6.9 mph 12.7 mph N/A   Partly Cloudy
5:55 AM 53.6 °F 46.4 °F 77% 29.87 in 10.0 mi WSW 8.1 mph - N/A   Mostly Cloudy
6:15 AM 53.6 °F 44.6 °F 72% 29.88 in 10.0 mi WSW 8.1 mph - N/A   Partly Cloudy
6:35 AM 53.6 °F 42.8 °F 67% 29.87 in 10.0 mi West 11.5 mph - N/A   Clear
6:55 AM 51.8 °F 39.2 °F 62% 29.90 in 10.0 mi West 11.5 mph - N/A   Clear
7:15 AM 50.0 °F 37.4 °F 62% 29.92 in 10.0 mi West 10.4 mph 17.3 mph N/A   Clear
7:35 AM 50.0 °F 37.4 °F 62% 29.92 in 10.0 mi West 9.2 mph 15.0 mph N/A   Mostly Cloudy
7:55 AM 50.0 °F 37.4 °F 62% 29.92 in 10.0 mi West 6.9 mph - N/A   Overcast
8:15 AM 50.0 °F 39.2 °F 66% 29.92 in 10.0 mi West 8.1 mph - N/A   Overcast
8:35 AM 50.0 °F 39.2 °F 66% 29.92 in 10.0 mi WSW 10.4 mph - N/A   Overcast
8:55 AM 48.2 °F 37.4 °F 66% 29.92 in 10.0 mi West 15.0 mph - N/A   Overcast
9:15 AM 48.2 °F 35.6 °F 62% 29.92 in 10.0 mi West 6.9 mph 15.0 mph N/A   Overcast
9:35 AM 48.2 °F 37.4 °F 66% 29.92 in 10.0 mi West 6.9 mph - N/A   Overcast
9:55 AM 48.2 °F 35.6 °F 62% 29.93 in 10.0 mi WSW 8.1 mph - N/A   Overcast
10:15 AM 50.0 °F 35.6 °F 58% 29.93 in 10.0 mi SW 9.2 mph - N/A   Overcast
10:35 AM 50.0 °F 35.6 °F 58% 29.92 in 10.0 mi SSW 10.4 mph - N/A   Overcast
10:55 AM 50.0 °F 35.6 °F 58% 29.91 in 10.0 mi WSW 8.1 mph 15.0 mph N/A   Overcast
11:15 AM 51.8 °F 37.4 °F 58% 29.91 in 10.0 mi WSW 10.4 mph - N/A   Mostly Cloudy
11:35 AM 51.8 °F 37.4 °F 58% 29.91 in 10.0 mi WSW 10.4 mph 17.3 mph N/A   Partly Cloudy
11:55 AM 53.6 °F 35.6 °F 51% 29.90 in 10.0 mi SW 12.7 mph 19.6 mph N/A   Partly Cloudy
12:15 PM 53.6 °F 37.4 °F 54% 29.89 in 10.0 mi SW 12.7 mph 18.4 mph N/A   Partly Cloudy
12:35 PM 53.6 °F 37.4 °F 54% 29.88 in 10.0 mi WSW 12.7 mph - N/A   Clear
12:55 PM 55.4 °F 37.4 °F 51% 29.87 in 10.0 mi SW 10.4 mph 17.3 mph N/A   Clear
1:15 PM 57.2 °F 37.4 °F 48% 29.87 in 10.0 mi Variable 6.9 mph 13.8 mph N/A   Clear
1:35 PM 57.2 °F 39.2 °F 51% 29.86 in 10.0 mi SSW 10.4 mph 17.3 mph N/A   Clear
1:55 PM 59.0 °F 39.2 °F 48% 29.86 in 10.0 mi SW 12.7 mph - N/A   Clear
2:15 PM 59.0 °F 39.2 °F 48% 29.85 in 10.0 mi SW 13.8 mph 21.9 mph N/A   Partly Cloudy
2:35 PM 59.0 °F 39.2 °F 48% 29.84 in 10.0 mi SW 10.4 mph 21.9 mph N/A   Mostly Cloudy
2:55 PM 59.0 °F 39.2 °F 48% 29.83 in 10.0 mi SW 15.0 mph 20.7 mph N/A   Partly Cloudy
3:15 PM 60.8 °F 39.2 °F 45% 29.83 in 10.0 mi SW 16.1 mph 26.5 mph N/A   Clear
3:35 PM 59.0 °F 39.2 °F 48% 29.83 in 10.0 mi WSW 10.4 mph 19.6 mph N/A   Clear
3:55 PM 59.0 °F 37.4 °F 45% 29.83 in 10.0 mi SW 16.1 mph 25.3 mph N/A   Clear
4:15 PM 57.2 °F 37.4 °F 48% 29.82 in 10.0 mi SW 12.7 mph 23.0 mph N/A   Clear
4:35 PM 57.2 °F 37.4 °F 48% 29.81 in 10.0 mi SW 12.7 mph 20.7 mph N/A   Clear
4:55 PM 57.2 °F 35.6 °F 44% 29.82 in 10.0 mi WSW 12.7 mph 21.9 mph N/A   Clear
5:15 PM 55.4 °F 35.6 °F 47% 29.82 in 10.0 mi WSW 11.5 mph 20.7 mph N/A   Clear
5:35 PM 55.4 °F 35.6 °F 47% 29.82 in 10.0 mi SW 12.7 mph 20.7 mph N/A   Clear
5:55 PM 53.6 °F 35.6 °F 51% 29.83 in 10.0 mi WSW 16.1 mph 23.0 mph N/A   Clear
6:15 PM 53.6 °F 35.6 °F 51% 29.82 in 10.0 mi WSW 12.7 mph - N/A   Clear
6:35 PM 51.8 °F 35.6 °F 54% 29.82 in 10.0 mi SW 6.9 mph - N/A   Partly Cloudy
6:55 PM 53.6 °F 35.6 °F 51% 29.83 in 10.0 mi SW 9.2 mph - N/A   Mostly Cloudy
7:15 PM 51.8 °F 35.6 °F 54% 29.83 in 10.0 mi WSW 15.0 mph - N/A   Mostly Cloudy
7:35 PM 51.8 °F 33.8 °F 50% 29.84 in 10.0 mi SW 13.8 mph 20.7 mph N/A   Scattered Clouds
7:55 PM 51.8 °F 32.0 °F 47% 29.84 in 10.0 mi WSW 11.5 mph 21.9 mph N/A   Partly Cloudy
8:15 PM 51.8 °F 33.8 °F 50% 29.84 in 10.0 mi SW 9.2 mph - N/A   Mostly Cloudy
8:35 PM 50.0 °F 33.8 °F 54% 29.83 in 10.0 mi SW 6.9 mph - N/A   Overcast
8:55 PM 50.0 °F 33.8 °F 54% 29.83 in 10.0 mi SSW 6.9 mph - N/A   Scattered Clouds
9:15 PM 50.0 °F 33.8 °F 54% 29.82 in 10.0 mi SSW 6.9 mph - N/A   Scattered Clouds
9:35 PM 48.2 °F 35.6 °F 62% 29.83 in 10.0 mi SW 8.1 mph - N/A   Partly Cloudy
9:55 PM 50.0 °F 35.6 °F 58% 29.82 in 10.0 mi SW 8.1 mph - N/A   Mostly Cloudy
10:15 PM 50.0 °F 35.6 °F 58% 29.82 in 10.0 mi SW 12.7 mph - N/A   Overcast
10:35 PM 50.0 °F 33.8 °F 54% 29.82 in 10.0 mi SW 10.4 mph - N/A   Overcast
10:55 PM 50.0 °F 33.8 °F 54% 29.81 in 10.0 mi SW 6.9 mph 15.0 mph N/A   Overcast
11:15 PM 50.0 °F 35.6 °F 58% 29.80 in 10.0 mi SW 10.4 mph - N/A   Overcast
11:35 PM 50.0 °F 33.8 °F 54% 29.80 in 10.0 mi SW 11.5 mph - N/A   Overcast
11:55 PM 48.2 °F 33.8 °F 58% 29.78 in 10.0 mi SW 12.7 mph 18.4 mph N/A   Overcast